Latest Weather Observations for Kalumburu

IDD60801

Issued at 11:31 pm CST Tuesday 12 December 2017 (issued every 30 minutes, with the page automatically refreshed every 10 minutes)

About weather observations | Map of weather stations | Latest weather observations for NT | Other Formats
Station Details ID: 001019 Name: KALUMBURU Lat: -14.30 Lon: 126.65 Height: 23.0 m
Data from the previous 72 hours. | See also: Recent months at Kalumburu
Date/Time
CST
Temp
°C
App
Temp
°C
Dew
Point
°C
Rel
Hum
%
Delta-T
°C
Wind Press
QNH
hPa
Press
MSL
hPa
Rain since
9am
mm
Dir  Spd
km/h
Gust
km/h
Spd
kts
Gust
kts
12/11:30pm 27.9 30.4 19.9 61 5.2 SSW 6 11 3 6 1007.7 1007.5 0.0
12/11:00pm 27.7 30.2 19.8 62 5.2 SSE 6 9 3 5 1007.7 1007.5 0.0
12/10:30pm 27.8 30.0 19.6 61 5.3 SSE 7 11 4 6 1007.7 1007.5 0.0
12/10:00pm 27.9 29.9 19.1 58 5.7 S 7 11 4 6 1007.9 1007.7 0.0
12/09:30pm 28.3 29.9 19.2 57 5.9 S 9 15 5 8 1008.0 1007.8 0.0
12/09:00pm 28.5 30.1 19.2 57 6.0 S 9 17 5 9 1007.6 1007.4 0.0
12/08:30pm 28.3 30.5 19.5 59 5.7 SE 7 11 4 6 1007.4 1007.2 0.0
12/08:00pm 28.5 30.9 19.7 59 5.7 SE 6 9 3 5 1006.8 1006.6 0.0
12/07:30pm 29.2 31.0 19.5 56 6.3 S 9 15 5 8 1007.0 1006.8 0.0
12/07:00pm 31.1 33.9 21.6 57 6.4 S 9 13 5 7 1006.7 1006.5 0.0
12/06:30pm 30.1 34.2 21.5 60 5.8 NE 2 7 1 4 1006.2 1006.0 0.0
12/06:00pm 30.6 34.3 20.8 56 6.5 NW 2 7 1 4 1006.1 1005.9 0.0
12/05:30pm 31.7 34.6 20.6 51 7.4 WNW 6 11 3 6 1005.2 1005.0 0.0
12/05:00pm 32.7 33.6 19.2 44 8.9 W 13 28 7 15 1005.3 1005.1 0.0
12/04:30pm 34.6 36.6 23.0 51 8.1 WNW 17 26 9 14 1005.8 1005.6 0.0
12/04:00pm 36.3 37.3 21.7 42 10.0 NNW 19 28 10 15 1004.9 1004.7 0.0
12/03:30pm 37.3 38.1 21.8 40 10.7 N 20 30 11 16 1005.5 1005.3 0.0
12/03:00pm 37.7 39.8 23.7 44 9.8 N 19 30 10 16 1006.2 1006.0 0.0
12/02:30pm 37.3 38.5 22.2 41 10.4 NNW 19 32 10 17 1006.7 1006.5 0.0
12/02:00pm 37.9 39.5 20.7 36 11.7 NW 13 20 7 11 1007.0 1006.8 0.0
12/01:30pm 38.5 41.3 21.6 37 11.6 NNW 9 17 5 9 1007.4 1007.2 0.0
12/01:00pm 38.1 39.7 20.0 35 12.2 WNW 11 19 6 10 1008.1 1007.9 0.0
12/12:30pm 38.1 40.1 20.0 35 12.2 S 9 13 5 7 1008.6 1008.4 0.0
12/12:00pm 37.4 39.3 18.9 34 12.2 SSE 7 13 4 7 1009.1 1008.9 0.0
12/11:30am 37.0 39.1 19.4 35 11.7 S 7 13 4 7 1009.7 1009.5 0.0
12/11:00am 36.0 38.2 20.3 40 10.5 W 9 17 5 9 1010.3 1010.1 0.0
12/10:30am 35.0 37.8 20.9 43 9.5 W 7 17 4 9 1010.8 1010.6 0.0
12/10:00am 33.8 37.7 22.6 52 7.7 SSE 6 9 3 5 1011.3 1011.1 0.0
12/09:30am 32.4 36.4 23.1 58 6.4 S 7 9 4 5 1011.4 1011.2 0.0
12/09:00am 31.7 35.6 23.0 60 6.0 SSE 7 9 4 5 1011.2 1011.0 0.0
12/08:30am 30.5 34.6 22.9 64 5.2 SSE 6 11 3 6 1011.2 1011.0 0.0
12/08:00am 28.9 34.1 23.6 73 3.7 SSE 2 7 1 4 1010.9 1010.7 0.0
12/07:30am 26.4 32.0 23.5 84 2.0 CALM 0 0 0 0 1010.6 1010.4 0.0
12/07:00am 25.0 30.2 22.9 88 1.4 CALM 0 0 0 0 1010.2 1010.0 0.0
12/06:30am 24.1 28.8 22.0 88 1.4 CALM 0 0 0 0 1009.6 1009.4 0.0
12/06:00am 24.4 29.2 22.1 87 1.5 CALM 0 0 0 0 1009.1 1008.9 0.0
12/05:30am 24.6 29.4 22.1 86 1.7 CALM 0 0 0 0 1008.8 1008.6 0.0
12/05:00am 24.7 29.5 22.2 86 1.7 CALM 0 0 0 0 1008.5 1008.3 0.0
12/04:30am 24.6 29.4 22.1 86 1.7 CALM 0 0 0 0 1008.4 1008.2 0.0
12/04:00am 24.5 29.2 22.0 86 1.7 CALM 0 0 0 0 1008.3 1008.1 0.0
12/03:30am 24.5 29.2 22.0 86 1.7 CALM 0 0 0 0 1008.3 1008.1 0.0
12/03:00am 24.5 29.1 21.8 85 1.8 CALM 0 0 0 0 1008.4 1008.2 0.0
12/02:30am 24.8 29.6 22.1 85 1.8 CALM 0 0 0 0 1008.6 1008.4 0.0
12/02:00am 24.9 29.4 21.6 82 2.2 CALM 0 0 0 0 1008.9 1008.7 0.0
12/01:30am 25.5 29.9 21.4 78 2.7 CALM 0 0 0 0 1009.3 1009.1 0.0
12/01:00am 25.6 30.2 21.7 79 2.6 CALM 0 0 0 0 1009.9 1009.7 0.0
12/12:30am 25.6 30.4 22.1 81 2.3 CALM 0 7 0 4 1010.3 1010.1 0.0
12/12:00am 25.9 30.5 21.8 78 2.7 CALM 0 0 0 0 1010.3 1010.1 0.0
 
Date/Time
CST
Temp
°C
App
Temp
°C
Dew
Point
°C
Rel
Hum
%
Delta-T
°C
Wind Press
QNH
hPa
Press
MSL
hPa
Rain since
9am
mm
Dir  Spd
km/h
Gust
km/h
Spd
kts
Gust
kts
11/11:30pm 26.3 30.9 21.7 76 3.1 CALM 0 0 0 0 1010.6 1010.4 0.0
11/11:00pm 26.6 31.3 22.0 76 3.1 CALM 0 0 0 0 1010.8 1010.6 0.0
11/10:30pm 27.0 31.4 21.3 71 3.8 CALM 0 0 0 0 1010.6 1010.4 0.0
11/10:00pm 27.3 31.5 20.9 68 4.2 CALM 0 0 0 0 1010.8 1010.6 0.0
11/09:30pm 28.1 32.4 21.1 65 4.7 CALM 0 0 0 0 1010.7 1010.5 0.0
11/09:00pm 27.9 32.0 20.7 65 4.8 CALM 0 0 0 0 1010.4 1010.2 0.0
11/08:30pm 27.7 32.1 21.3 68 4.3 CALM 0 0 0 0 1009.9 1009.7 0.0
11/08:00pm 27.6 32.1 21.6 70 4.0 CALM 0 4 0 2 1009.3 1009.1 0.0
11/07:30pm 27.8 32.4 21.8 70 4.0 CALM 0 0 0 0 1008.7 1008.5 0.0
11/07:00pm 28.1 32.6 21.6 68 4.4 CALM 0 0 0 0 1008.2 1008.0 0.0
11/06:30pm 29.0 31.6 20.4 59 5.7 NW 7 13 4 7 1007.2 1007.0 0.0
11/06:00pm 30.2 29.8 18.9 50 7.3 N 19 30 10 16 1007.3 1007.1 0.0
11/05:30pm 29.7 29.4 19.1 53 6.9 E 19 41 10 22 1008.3 1008.1 0.0
11/05:29pm 30.1 29.7 18.8 50 7.3 ENE 19 41 10 22 1008.3 1008.1 0.0
11/05:00pm 35.4 35.2 19.7 39 10.4 N 20 32 11 17 1006.7 1006.5 0.0
11/04:30pm 35.5 34.8 21.0 42 9.8 N 26 37 14 20 1005.9 1005.7 0.0
11/04:00pm 36.9 37.0 21.1 40 10.7 NNW 22 35 12 19 1005.9 1005.7 0.0
11/03:30pm 39.6 41.3 19.3 30 13.6 W 9 15 5 8 1006.3 1006.1 0.0
11/03:00pm 39.0 41.1 19.3 31 13.2 SSE 7 15 4 8 1006.8 1006.6 0.0
11/02:30pm 38.2 40.2 19.1 32 12.7 SSE 7 15 4 8 1007.2 1007.0 0.0
11/02:00pm 38.1 40.8 21.3 37 11.5 S 9 15 5 8 1007.6 1007.4 0.0
11/01:30pm 37.8 40.1 21.4 38 11.2 S 11 17 6 9 1008.1 1007.9 0.0
11/01:00pm 37.0 39.5 20.3 37 11.2 N 7 11 4 6 1008.7 1008.5 0.0
11/12:30pm 36.2 38.2 20.0 38 10.9 NNE 9 15 5 8 1009.3 1009.1 0.0
11/12:00pm 35.8 38.2 20.1 40 10.5 S 7 11 4 6 1009.9 1009.7 0.0
11/11:30am 36.1 39.6 21.9 43 9.7 SE 6 9 3 5 1010.5 1010.3 0.0
11/11:00am 35.1 38.9 22.8 49 8.5 SSE 7 11 4 6 1011.0 1010.8 0.0
11/10:30am 34.3 38.6 23.3 52 7.6 SSE 6 9 3 5 1011.4 1011.2 0.0
11/10:00am 33.5 37.4 22.6 53 7.5 SSW 6 9 3 5 1011.6 1011.4 0.0
11/09:30am 32.9 37.1 24.1 60 6.2 SSE 9 11 5 6 1011.8 1011.6 0.0
11/09:00am 32.1 36.6 23.9 62 5.7 S 7 11 4 6 1011.9 1011.7 0.0
11/08:30am 31.3 36.1 24.2 66 5.0 S 6 9 3 5 1011.9 1011.7 0.0
11/08:00am 30.3 36.8 25.1 73 3.7 CALM 0 0 0 0 1011.6 1011.4 0.0
11/07:30am 28.1 34.9 25.5 86 1.8 CALM 0 0 0 0 1011.6 1011.4 0.0
11/07:00am 26.6 32.6 24.3 87 1.6 CALM 0 0 0 0 1011.3 1011.1 0.0
11/06:30am 26.3 32.1 24.0 87 1.6 CALM 0 0 0 0 1011.0 1010.8 0.0
11/06:00am 26.4 32.2 23.9 86 1.7 CALM 0 0 0 0 1010.4 1010.2 0.0
11/05:30am 26.6 32.3 23.7 84 2.0 CALM 0 0 0 0 1010.0 1009.8 0.0
11/05:00am 26.7 32.5 24.0 85 1.9 CALM 0 0 0 0 1009.7 1009.5 0.0
11/04:30am 26.9 33.0 24.5 87 1.7 CALM 0 0 0 0 1009.4 1009.2 0.0
11/04:00am 26.7 32.7 24.2 86 1.7 CALM 0 0 0 0 1009.1 1008.9 0.0
11/03:30am 26.8 32.8 24.3 86 1.7 CALM 0 0 0 0 1009.3 1009.1 0.0
11/03:00am 26.8 32.4 24.3 86 1.7 SSE 2 6 1 3 1009.4 1009.2 0.0
11/02:30am 26.8 32.9 24.5 87 1.6 CALM 0 0 0 0 1009.5 1009.3 0.0
11/02:00am 26.6 32.4 23.9 85 1.9 CALM 0 0 0 0 1009.7 1009.5 0.0
11/01:30am 27.0 32.7 23.7 82 2.3 CALM 0 0 0 0 1009.9 1009.7 0.0
11/01:00am 27.6 33.3 23.8 80 2.6 CALM 0 0 0 0 1010.4 1010.2 0.0
11/12:30am 28.4 33.6 23.5 75 3.4 WSW 2 7 1 4 1010.6 1010.4 0.0
11/12:00am 28.9 33.4 23.6 73 3.7 W 6 7 3 4 1010.8 1010.6 0.0
 
Date/Time
CST
Temp
°C
App
Temp
°C
Dew
Point
°C
Rel
Hum
%
Delta-T
°C
Wind Press
QNH
hPa
Press
MSL
hPa
Rain since
9am
mm
Dir  Spd
km/h
Gust
km/h
Spd
kts
Gust
kts
10/11:30pm 29.5 34.0 23.7 71 4.0 WNW 6 7 3 4 1011.0 1010.8 0.0
10/11:00pm 29.9 34.5 24.1 71 4.0 NW 7 11 4 6 1011.1 1010.9 0.0
10/10:30pm 30.1 34.4 24.3 71 4.0 NW 9 13 5 7 1011.1 1010.9 0.0
10/10:00pm 30.4 34.4 23.8 68 4.6 NNW 9 13 5 7 1011.1 1010.9 0.0
10/09:30pm 30.5 34.6 23.9 68 4.6 NNW 9 15 5 8 1010.8 1010.6 0.0
10/09:00pm 30.8 34.6 24.0 67 4.7 NNW 11 19 6 10 1010.3 1010.1 0.0
10/08:30pm 30.9 34.0 23.5 64 5.1 NNW 13 19 7 10 1010.1 1009.9 0.0
10/08:00pm 31.1 34.0 23.2 63 5.4 NNW 13 20 7 11 1009.7 1009.5 0.0
10/07:30pm 31.6 33.4 22.6 59 6.2 N 17 24 9 13 1009.3 1009.1 0.0
10/07:00pm 31.9 33.9 22.3 56 6.5 N 15 20 8 11 1008.7 1008.5 0.0
10/06:30pm 33.0 35.8 23.0 55 6.9 NNW 13 20 7 11 1008.2 1008.0 0.0
10/06:00pm 33.7 35.1 22.5 52 7.7 N 19 24 10 13 1007.8 1007.6 0.0
10/05:30pm 34.2 36.4 22.6 50 8.0 N 15 24 8 13 1007.4 1007.2 0.0
10/05:00pm 35.1 37.2 23.1 49 8.3 N 17 24 9 13 1006.9 1006.7 0.0
10/04:30pm 35.8 38.1 22.7 46 9.1 NNW 15 20 8 11 1006.9 1006.7 0.0
10/04:00pm 35.7 38.1 23.0 48 8.8 NNW 15 22 8 12 1007.1 1006.9 0.0
10/03:30pm 35.8 38.3 22.4 46 9.3 NNW 13 22 7 12 1007.4 1007.2 0.0
10/03:00pm 35.3 37.5 22.6 47 8.8 NNW 15 22 8 12 1007.6 1007.4 0.0
10/02:30pm 35.1 37.0 22.8 49 8.5 NNW 17 24 9 13 1007.7 1007.5 0.0
10/02:00pm 35.8 37.3 21.3 43 9.9 N 15 35 8 19 1007.8 1007.6 0.0
10/01:30pm 36.5 38.5 20.7 39 10.7 NNE 11 17 6 9 1008.2 1008.0 0.0
10/01:00pm 36.6 39.6 22.7 44 9.6 E 11 17 6 9 1008.7 1008.5 0.0
10/12:30pm 35.6 39.1 22.9 48 8.8 E 9 17 5 9 1009.3 1009.1 0.0
10/12:00pm 34.8 38.5 22.5 48 8.5 NW 7 13 4 7 1009.8 1009.6 0.0
10/11:30am 34.3 38.8 23.6 53 7.5 NE 6 9 3 5 1010.3 1010.1 0.0
10/11:00am 33.9 38.0 23.3 54 7.4 SSW 7 11 4 6 1010.6 1010.4 0.0
10/10:30am 33.5 37.7 23.5 55 7.0 SSW 7 13 4 7 1010.9 1010.7 0.0
10/10:00am 32.8 37.7 25.3 64 5.3 SSE 9 13 5 7 1011.0 1010.8 0.0
10/09:30am 31.7 37.0 25.8 71 4.2 SSE 9 13 5 7 1011.1 1010.9 0.0
10/09:00am 31.2 36.3 25.5 71 4.0 SSW 9 13 5 7 1011.0 1010.8 0.0
10/08:30am 30.4 36.1 25.9 77 3.2 S 7 11 4 6 1010.9 1010.7 0.0
10/08:00am 29.2 35.8 26.4 85 2.0 SSE 4 7 2 4 1010.8 1010.6 0.0
10/07:30am 27.9 35.1 26.1 90 1.3 CALM 0 0 0 0 1010.3 1010.1 0.0
10/07:00am 26.5 32.6 24.5 89 1.4 CALM 0 0 0 0 1009.8 1009.6 0.0
10/06:30am 26.4 32.5 24.4 89 1.4 CALM 0 0 0 0 1009.6 1009.4 0.0
10/06:00am 26.3 32.3 24.3 89 1.4 CALM 0 0 0 0 1009.1 1008.9 0.0
10/05:30am 26.7 33.0 24.7 89 1.4 CALM 0 0 0 0 1008.8 1008.6 0.0
10/05:00am 26.7 32.8 24.5 88 1.5 CALM 0 0 0 0 1008.3 1008.1 0.0
10/04:30am 26.8 33.0 24.6 88 1.5 CALM 0 0 0 0 1007.8 1007.6 0.0
10/04:00am 26.9 33.2 24.7 88 1.5 CALM 0 0 0 0 1007.5 1007.3 0.0
10/03:30am 27.0 33.2 24.6 87 1.7 CALM 0 0 0 0 1007.3 1007.1 0.0
10/03:00am 27.2 33.3 24.5 85 1.9 CALM 0 0 0 0 1007.4 1007.2 0.0
10/02:30am 28.0 34.2 24.6 82 2.4 CALM 0 6 0 3 1007.6 1007.4 0.0
10/02:00am 28.9 34.3 25.1 80 2.7 WNW 6 9 3 5 1008.0 1007.8 0.0
10/01:30am 28.9 34.7 25.1 80 2.7 WNW 4 11 2 6 1008.4 1008.2 0.0

Other Formats:

Comma delimited format used in spreadsheet applications
http://www.bom.gov.au/fwo/IDD60801/IDD60801.94100.axf

JavaScript Object Notation format (JSON) in row-major order
http://www.bom.gov.au/fwo/IDD60801/IDD60801.94100.json